createdAt,value
2017-06-10T00:00:03.152Z,13.1
2017-06-10T00:05:02.399Z,12.8
2017-06-10T00:10:02.874Z,12.8
2017-06-10T00:15:03.238Z,12.6
2017-06-10T00:20:02.600Z,12.6
2017-06-10T00:25:02.931Z,12.8
2017-06-10T00:30:02.279Z,12.5
2017-06-10T00:35:02.644Z,12.5
2017-06-10T00:40:03.074Z,12.5
2017-06-10T00:45:02.536Z,12.3
2017-06-10T00:50:02.965Z,12.6
2017-06-10T00:55:02.370Z,12.5
2017-06-10T01:00:02.665Z,12.3
2017-06-10T01:05:03.034Z,12.5
2017-06-10T01:10:02.617Z,12.6
2017-06-10T01:15:02.982Z,12.6
2017-06-10T01:20:02.421Z,12.6
2017-06-10T01:25:02.871Z,12.6
2017-06-10T01:30:03.284Z,12.6
2017-06-10T01:35:02.906Z,12.6
2017-06-10T01:40:02.292Z,12.8
2017-06-10T01:45:02.628Z,12.6
2017-06-10T01:50:03.150Z,12.6
2017-06-10T01:55:02.479Z,12.6
2017-06-10T02:00:02.871Z,12.1
2017-06-10T02:05:03.290Z,12.1
2017-06-10T02:10:02.725Z,12.1
2017-06-10T02:15:03.097Z,12.1
2017-06-10T02:20:02.532Z,12.0
2017-06-10T02:25:03.001Z,12.1
2017-06-10T02:30:02.338Z,12.0
2017-06-10T02:35:02.769Z,12.0
2017-06-10T02:40:03.286Z,12.0
2017-06-10T02:45:02.661Z,12.0
2017-06-10T02:50:03.252Z,12.0
2017-06-10T02:55:02.558Z,11.8
2017-06-10T03:00:02.869Z,11.6
2017-06-10T03:05:02.296Z,11.6
2017-06-10T03:10:02.842Z,11.6
2017-06-10T03:15:03.218Z,11.6
2017-06-10T03:20:02.554Z,11.6
2017-06-10T03:25:03.013Z,11.6
2017-06-10T03:30:02.402Z,11.6
2017-06-10T03:35:02.825Z,11.6
2017-06-10T03:40:03.250Z,11.3
2017-06-10T03:45:02.684Z,11.6
2017-06-10T03:50:03.042Z,11.3
2017-06-10T03:55:02.477Z,11.6
2017-06-10T04:00:02.804Z,11.6
2017-06-10T04:05:02.415Z,11.6
2017-06-10T04:10:02.800Z,11.6
2017-06-10T04:15:03.248Z,11.6
2017-06-10T04:20:02.711Z,11.8
2017-06-10T04:25:03.300Z,11.8
2017-06-10T04:30:02.613Z,12.0
2017-06-10T04:35:03.141Z,12.1
2017-06-10T04:40:02.583Z,12.1
2017-06-10T04:45:03.032Z,12.1
2017-06-10T04:50:02.411Z,12.3
2017-06-10T04:55:02.778Z,12.5
2017-06-10T05:00:03.266Z,12.6
2017-06-10T05:05:02.618Z,12.8
2017-06-10T05:10:03.222Z,12.8
2017-06-10T05:15:02.647Z,12.8
2017-06-10T05:20:03.022Z,13.1
2017-06-10T05:25:02.603Z,13.1
2017-06-10T05:30:03.023Z,13.3
2017-06-10T05:35:02.593Z,13.3
2017-06-10T05:40:03.012Z,13.5
2017-06-10T05:45:02.481Z,13.5
2017-06-10T05:50:02.808Z,13.6
2017-06-10T05:55:03.349Z,13.8
2017-06-10T06:00:02.777Z,13.8
2017-06-10T06:05:03.285Z,14.0
2017-06-10T06:10:02.831Z,14.1
2017-06-10T06:15:03.202Z,14.3
2017-06-10T06:20:02.498Z,14.3
2017-06-10T06:25:03.060Z,14.6
2017-06-10T06:30:02.553Z,14.6
2017-06-10T06:35:03.044Z,14.6
2017-06-10T06:40:02.549Z,15.0
2017-06-10T06:45:03.001Z,15.1
2017-06-10T06:50:02.597Z,15.1
2017-06-10T06:55:03.046Z,15.3
2017-06-10T07:00:02.359Z,15.8
2017-06-10T07:05:02.888Z,16.0
2017-06-10T07:10:02.317Z,16.0
2017-06-10T07:15:02.652Z,16.3
2017-06-10T07:20:03.074Z,16.3
2017-06-10T07:25:02.857Z,16.7
2017-06-10T07:30:03.246Z,16.7
2017-06-10T07:35:02.656Z,17.5
2017-06-10T07:40:03.287Z,17.3
2017-06-10T07:45:02.647Z,17.8
2017-06-10T07:50:03.011Z,18.1
2017-06-10T07:55:02.522Z,18.2
2017-06-10T08:00:03.116Z,18.6
2017-06-10T08:05:02.644Z,19.2
2017-06-10T08:10:03.271Z,19.7
2017-06-10T08:15:02.718Z,19.0
2017-06-10T08:20:03.203Z,19.5
2017-06-10T08:25:02.527Z,20.0
2017-06-10T08:30:03.078Z,20.2
2017-06-10T08:35:02.536Z,20.1
2017-06-10T08:40:03.124Z,20.1
2017-06-10T08:45:02.573Z,20.0
2017-06-10T08:50:02.962Z,19.2
2017-06-10T08:55:02.326Z,20.0
2017-06-10T09:00:02.781Z,19.3
2017-06-10T09:05:03.223Z,19.0
2017-06-10T09:10:02.880Z,19.5
2017-06-10T09:15:02.377Z,20.2
2017-06-10T09:20:02.830Z,22.0
2017-06-10T09:25:02.849Z,20.8
2017-06-10T09:30:02.825Z,21.7
2017-06-10T09:35:02.503Z,21.6
2017-06-10T09:40:02.378Z,22.2
2017-06-10T09:45:02.957Z,21.6
2017-06-10T09:50:02.390Z,21.8
2017-06-10T09:55:02.978Z,21.6
2017-06-10T10:00:03.040Z,21.8
2017-06-10T10:05:02.471Z,21.0
2017-06-10T10:10:02.345Z,21.0
2017-06-10T10:15:02.365Z,21.2
2017-06-10T10:20:03.251Z,20.8
2017-06-10T10:25:03.191Z,21.6
2017-06-10T10:30:02.382Z,21.5
2017-06-10T10:35:02.955Z,21.7
2017-06-10T10:40:02.910Z,21.6
2017-06-10T10:45:02.905Z,23.0
2017-06-10T10:50:02.981Z,22.1
2017-06-10T10:55:02.414Z,22.0
2017-06-10T11:00:03.085Z,22.3
2017-06-10T11:05:02.257Z,21.8
2017-06-10T11:10:02.725Z,22.3
2017-06-10T11:15:02.467Z,22.3
2017-06-10T11:20:03.060Z,22.7
2017-06-10T11:25:02.584Z,22.5
2017-06-10T11:30:03.171Z,22.1
2017-06-10T11:35:02.677Z,22.7
2017-06-10T11:40:03.055Z,22.2
2017-06-10T11:45:02.274Z,22.2
2017-06-10T11:50:02.819Z,23.1
2017-06-10T11:55:02.653Z,24.0
2017-06-10T12:00:03.191Z,23.2
2017-06-10T12:05:02.435Z,23.3
2017-06-10T12:10:02.257Z,23.2
2017-06-10T12:15:02.895Z,23.2
2017-06-10T12:20:02.953Z,23.2
2017-06-10T12:25:02.374Z,23.6
2017-06-10T12:30:03.057Z,23.7
2017-06-10T12:35:02.303Z,23.7
2017-06-10T12:40:02.680Z,23.8
2017-06-10T12:45:02.880Z,23.7
2017-06-10T12:50:03.239Z,23.7
2017-06-10T12:55:02.925Z,24.5
2017-06-10T13:00:03.225Z,24.7
2017-06-10T13:05:02.316Z,24.3
2017-06-10T13:10:02.579Z,24.5
2017-06-10T13:15:02.394Z,24.0
2017-06-10T13:20:02.803Z,24.0
2017-06-10T13:25:02.823Z,24.5
2017-06-10T13:30:02.631Z,24.2
2017-06-10T13:35:02.875Z,24.6
2017-06-10T13:40:02.310Z,24.0
2017-06-10T13:45:03.021Z,25.5
2017-06-10T13:50:02.346Z,24.6
2017-06-10T13:55:02.978Z,26.7
2017-06-10T14:00:03.033Z,25.0
2017-06-10T14:05:03.188Z,24.7
2017-06-10T14:10:02.693Z,24.2
2017-06-10T14:15:02.681Z,24.6
2017-06-10T14:20:02.902Z,24.5
2017-06-10T14:25:02.311Z,24.3
2017-06-10T14:30:02.399Z,26.0
2017-06-10T14:35:02.749Z,26.5
2017-06-10T14:40:02.421Z,26.8
2017-06-10T14:45:02.676Z,25.6
2017-06-10T14:50:02.821Z,25.1
2017-06-10T14:55:03.073Z,26.2
2017-06-10T15:00:02.408Z,25.3
2017-06-10T15:05:02.953Z,26.2
2017-06-10T15:10:03.269Z,26.2
2017-06-10T15:15:02.732Z,26.0
2017-06-10T15:20:03.155Z,26.7
2017-06-10T15:25:02.487Z,26.6
2017-06-10T15:30:02.665Z,26.7
2017-06-10T15:35:02.980Z,26.2
2017-06-10T15:40:03.137Z,26.0
2017-06-10T15:45:02.464Z,26.6
2017-06-10T15:50:02.785Z,26.7
2017-06-10T15:55:02.796Z,25.7
2017-06-10T16:00:03.047Z,26.2
2017-06-10T16:05:02.580Z,25.8
2017-06-10T16:10:02.803Z,26.5
2017-06-10T16:15:02.923Z,26.0
2017-06-10T16:20:02.852Z,25.2
2017-06-10T16:25:03.114Z,24.8
2017-06-10T16:30:02.363Z,25.6
2017-06-10T16:35:02.466Z,24.2
2017-06-10T16:40:02.927Z,24.8
2017-06-10T16:45:02.771Z,26.2
2017-06-10T16:50:03.328Z,26.2
2017-06-10T16:55:02.982Z,26.2
2017-06-10T17:00:02.976Z,26.7
2017-06-10T17:05:02.690Z,26.2
2017-06-10T17:10:02.697Z,25.7
2017-06-10T17:15:02.542Z,26.2
2017-06-10T17:20:02.549Z,25.8
2017-06-10T17:25:03.212Z,26.1
2017-06-10T17:30:03.221Z,25.8
2017-06-10T17:35:02.945Z,25.5
2017-06-10T17:40:02.230Z,25.8
2017-06-10T17:45:02.556Z,26.1
2017-06-10T17:50:03.035Z,26.0
2017-06-10T17:55:02.517Z,25.8
2017-06-10T18:00:02.738Z,25.6
2017-06-10T18:05:03.179Z,25.6
2017-06-10T18:10:03.030Z,25.7
2017-06-10T18:15:03.121Z,25.3
2017-06-10T18:20:02.679Z,26.0
2017-06-10T18:25:02.923Z,25.3
2017-06-10T18:30:02.991Z,24.6
2017-06-10T18:35:02.994Z,24.5
2017-06-10T18:40:02.874Z,25.3
2017-06-10T18:45:02.511Z,24.8
2017-06-10T18:50:03.020Z,25.1
2017-06-10T18:55:02.473Z,24.2
2017-06-10T19:00:02.451Z,23.7
2017-06-10T19:05:02.766Z,23.2
2017-06-10T19:10:03.034Z,22.7
2017-06-10T19:15:02.668Z,22.6
2017-06-10T19:20:02.841Z,22.5
2017-06-10T19:25:02.841Z,22.2
2017-06-10T19:30:02.400Z,22.2
2017-06-10T19:35:02.388Z,22.0
2017-06-10T19:40:02.422Z,21.7
2017-06-10T19:45:02.744Z,21.6
2017-06-10T19:50:03.258Z,21.5
2017-06-10T19:55:03.180Z,21.2
2017-06-10T20:00:02.960Z,21.2
2017-06-10T20:05:03.154Z,21.0
2017-06-10T20:10:03.208Z,20.8
2017-06-10T20:15:03.073Z,20.7
2017-06-10T20:20:03.089Z,20.7
2017-06-10T20:25:03.005Z,20.6
2017-06-10T20:30:03.036Z,20.3
2017-06-10T20:35:02.356Z,20.3
2017-06-10T20:40:02.900Z,20.2
2017-06-10T20:45:03.158Z,20.1
2017-06-10T20:50:03.312Z,20.1
2017-06-10T20:55:02.495Z,20.0
2017-06-10T21:00:02.543Z,19.7
2017-06-10T21:05:02.313Z,19.7
2017-06-10T21:10:02.391Z,19.7
2017-06-10T21:15:02.312Z,19.7
2017-06-10T21:20:03.130Z,19.5
2017-06-10T21:25:02.734Z,19.3
2017-06-10T21:30:02.329Z,19.2
2017-06-10T21:35:02.746Z,19.3
2017-06-10T21:40:03.224Z,19.1
2017-06-10T21:45:02.597Z,19.0
2017-06-10T21:50:02.916Z,19.0
2017-06-10T21:55:02.314Z,18.8
2017-06-10T22:00:02.782Z,18.8
2017-06-10T22:05:03.091Z,18.7
2017-06-10T22:10:02.528Z,18.6
2017-06-10T22:15:02.843Z,18.6
2017-06-10T22:20:03.173Z,18.5
2017-06-10T22:25:02.644Z,18.5
2017-06-10T22:30:03.094Z,18.6
2017-06-10T22:35:02.515Z,18.2
2017-06-10T22:40:03.001Z,18.5
2017-06-10T22:45:02.342Z,18.2
2017-06-10T22:50:02.845Z,18.2
2017-06-10T22:55:03.172Z,18.2
2017-06-10T23:00:02.537Z,18.2
2017-06-10T23:05:03.203Z,18.1
2017-06-10T23:10:02.706Z,18.1
2017-06-10T23:15:02.978Z,18.1
2017-06-10T23:20:02.322Z,18.2
2017-06-10T23:25:02.781Z,18.1
2017-06-10T23:30:03.076Z,18.1
2017-06-10T23:35:02.367Z,17.8
2017-06-10T23:40:02.719Z,17.7
2017-06-10T23:45:03.044Z,17.7
2017-06-10T23:50:02.543Z,17.7
2017-06-10T23:55:02.961Z,17.7
